Jeddah/Abdul Aziz, Saudi Arabia
Current Conditions -  °F | °C
As of 4:00 AM on Saturday 25 Oct 2014 (Local Time) from OEJN Reporting Station
Clear Clear  
Wind Chill: 81°   Ceiling: Unl
Heat Index: 84°   Visibility: 6mi
Dew Point: 70°   Wind: 5mph
Humidity: 70%   Direction: 330°NNW
Pressure: 29.85"   Gusts: NA
Location:  21.67°N, 39.15°E
Report Text: OEJN 250100Z 33004KT CAVOK 27/21 Q1011 NOSIG
Loading
Personal Weather Stations






























Interactive Weather Map
Tropical Storm Tracking
New forecast layout! Learn more

10-Day Weather Forecast

Advertisements
Track Severe Weather on mobile